createdAt,value
2023-02-03T00:02:14.594Z,77.50
2023-02-03T00:04:44.168Z,77.85
2023-02-03T00:07:15.119Z,77.29
2023-02-03T00:09:46.084Z,77.53
2023-02-03T00:12:16.079Z,77.56
2023-02-03T00:14:45.520Z,78.33
2023-02-03T00:17:15.355Z,77.55
2023-02-03T00:19:44.874Z,77.67
2023-02-03T00:22:14.018Z,77.36
2023-02-03T00:24:43.629Z,77.94
2023-02-03T00:27:14.361Z,77.63
2023-02-03T00:29:43.867Z,77.44
2023-02-03T00:37:16.313Z,77.64
2023-02-03T00:39:45.903Z,77.96
2023-02-03T00:42:16.980Z,77.91
2023-02-03T00:44:46.832Z,77.91
2023-02-03T00:47:15.974Z,77.37
2023-02-03T00:49:45.973Z,77.84
2023-02-03T00:52:15.480Z,77.23
2023-02-03T00:54:45.075Z,77.48
2023-02-03T00:57:15.756Z,77.54
2023-02-03T00:59:45.452Z,78.56
2023-02-03T01:02:15.027Z,78.54
2023-02-03T01:04:45.043Z,77.77
2023-02-03T01:07:14.265Z,77.38
2023-02-03T01:09:43.795Z,78.47
2023-02-03T01:12:13.301Z,78.05
2023-02-03T01:14:45.025Z,79.16
2023-02-03T01:17:14.220Z,78.53
2023-02-03T01:19:43.809Z,77.51
2023-02-03T01:22:13.115Z,77.50
2023-02-03T01:24:42.709Z,77.43
2023-02-03T01:27:12.183Z,77.66
2023-02-03T01:29:43.000Z,78.14
2023-02-03T01:32:12.279Z,77.73
2023-02-03T01:34:41.860Z,77.01
2023-02-03T01:37:11.152Z,77.42
2023-02-03T01:39:40.970Z,77.23
2023-02-03T01:42:13.586Z,78.09
2023-02-03T01:44:47.628Z,78.22
2023-02-03T01:47:26.508Z,78.02
2023-02-03T01:50:07.150Z,78.17
2023-02-03T01:52:38.110Z,77.87
2023-02-03T01:55:16.531Z,78.41
2023-02-03T01:57:49.043Z,78.52
2023-02-03T02:00:21.083Z,77.93
2023-02-03T02:02:51.504Z,77.92
2023-02-03T02:05:28.590Z,77.51
2023-02-03T02:08:00.554Z,77.65
2023-02-03T02:10:31.398Z,77.90
2023-02-03T02:13:04.183Z,78.30
2023-02-03T02:15:44.572Z,78.06
2023-02-03T02:18:38.422Z,77.55
2023-02-03T02:21:38.559Z,77.67
2023-02-03T02:24:39.512Z,77.64
2023-02-03T02:27:32.586Z,77.85
2023-02-03T02:30:28.976Z,77.91
2023-02-03T02:33:16.772Z,78.20
2023-02-03T02:35:53.599Z,77.43
2023-02-03T02:38:36.253Z,77.54
2023-02-03T02:41:12.288Z,78.30
2023-02-03T02:43:44.587Z,76.81
2023-02-03T02:46:17.332Z,77.33
2023-02-03T02:48:53.744Z,77.86
2023-02-03T02:51:25.027Z,77.07
2023-02-03T02:53:59.618Z,76.94
2023-02-03T02:56:31.628Z,77.67
2023-02-03T02:59:05.811Z,77.14
2023-02-03T03:01:35.124Z,76.42
2023-02-03T03:04:10.708Z,76.74
2023-02-03T03:06:49.488Z,76.67
2023-02-03T03:09:22.993Z,77.37
2023-02-03T03:11:56.482Z,76.60
2023-02-03T03:14:31.504Z,76.16
2023-02-03T03:17:05.747Z,76.36
2023-02-03T03:19:47.277Z,76.25
2023-02-03T03:22:22.623Z,75.99
2023-02-03T03:24:59.969Z,77.00
2023-02-03T03:27:35.802Z,76.72
2023-02-03T03:34:57.410Z,77.09
2023-02-03T03:37:33.868Z,77.10
2023-02-03T03:40:09.965Z,76.76
2023-02-03T03:42:47.424Z,77.45
2023-02-03T03:45:21.922Z,77.32
2023-02-03T03:47:56.734Z,76.81
2023-02-03T03:50:30.833Z,77.06
2023-02-03T03:53:04.404Z,76.63
2023-02-03T03:55:43.967Z,77.04
2023-02-03T03:58:18.280Z,77.21
2023-02-03T04:00:49.464Z,76.85
2023-02-03T04:03:24.791Z,76.78
2023-02-03T04:05:55.600Z,76.63
2023-02-03T04:08:27.834Z,76.51
2023-02-03T04:10:57.173Z,76.71
2023-02-03T04:13:26.722Z,76.79
2023-02-03T04:15:56.194Z,76.62
2023-02-03T04:18:26.281Z,77.35
2023-02-03T04:20:59.633Z,77.55
2023-02-03T04:23:29.663Z,77.28
2023-02-03T04:26:02.106Z,77.06
2023-02-03T04:28:32.114Z,76.24
2023-02-03T04:31:02.746Z,76.62
2023-02-03T04:33:33.841Z,77.05
2023-02-03T04:36:05.128Z,76.84
2023-02-03T04:38:37.177Z,77.02
2023-02-03T04:41:06.797Z,76.98
2023-02-03T04:43:36.537Z,77.14
2023-02-03T04:46:06.502Z,77.32
2023-02-03T04:48:36.315Z,77.20
2023-02-03T04:51:09.318Z,77.56
2023-02-03T04:53:39.139Z,78.21
2023-02-03T04:56:08.841Z,77.87
2023-02-03T04:58:39.020Z,78.13
2023-02-03T05:01:10.135Z,78.03
2023-02-03T05:03:40.142Z,78.11
2023-02-03T05:06:11.096Z,77.46
2023-02-03T05:08:41.125Z,77.40
2023-02-03T05:11:13.701Z,77.25
2023-02-03T05:13:43.319Z,77.97
2023-02-03T05:16:12.730Z,77.98
2023-02-03T05:18:42.494Z,77.78
2023-02-03T05:21:16.600Z,78.27
2023-02-03T05:23:46.404Z,79.56
2023-02-03T05:26:15.938Z,79.66
2023-02-03T05:28:45.834Z,80.26
2023-02-03T05:31:15.418Z,79.88
2023-02-03T05:33:45.169Z,80.12
2023-02-03T05:36:15.783Z,79.18
2023-02-03T05:38:46.175Z,79.28
2023-02-03T05:41:35.553Z,79.94
2023-02-03T05:44:05.450Z,80.19
2023-02-03T05:46:35.227Z,82.01
2023-02-03T05:49:04.842Z,81.05
2023-02-03T05:51:40.992Z,81.99
2023-02-03T05:54:11.098Z,81.32
2023-02-03T05:56:40.606Z,81.11
2023-02-03T05:59:10.534Z,81.90
2023-02-03T06:01:41.089Z,82.29
2023-02-03T06:04:11.509Z,82.54
2023-02-03T06:06:42.538Z,82.16
2023-02-03T06:09:12.607Z,81.85
2023-02-03T06:11:42.894Z,82.45
2023-02-03T06:14:12.807Z,82.38
2023-02-03T06:16:42.390Z,81.77
2023-02-03T06:19:16.342Z,81.79
2023-02-03T06:21:47.577Z,81.26
2023-02-03T06:24:17.859Z,81.41
2023-02-03T06:26:47.105Z,81.06
2023-02-03T06:29:23.815Z,81.75
2023-02-03T06:31:53.878Z,81.22
2023-02-03T06:34:26.651Z,81.22
2023-02-03T06:36:57.312Z,82.03
2023-02-03T06:39:27.026Z,81.31
2023-02-03T06:42:06.643Z,80.83
2023-02-03T06:44:36.288Z,80.56
2023-02-03T06:47:05.591Z,81.39
2023-02-03T06:49:35.356Z,81.11
2023-02-03T06:52:06.319Z,81.32
2023-02-03T06:54:36.007Z,81.17
2023-02-03T06:57:05.475Z,81.57
2023-02-03T06:59:38.618Z,80.73
2023-02-03T07:02:08.257Z,80.79
2023-02-03T07:04:39.058Z,81.03
2023-02-03T07:07:09.981Z,81.10
2023-02-03T07:09:42.265Z,80.47
2023-02-03T07:12:12.244Z,80.72
2023-02-03T07:14:44.417Z,80.65
2023-02-03T07:17:13.808Z,81.09
2023-02-03T07:19:46.809Z,80.85
2023-02-03T07:22:20.415Z,80.72
2023-02-03T07:24:50.237Z,81.44
2023-02-03T07:27:20.369Z,81.40
2023-02-03T07:29:49.841Z,80.58
2023-02-03T07:32:19.141Z,80.82
2023-02-03T07:34:48.671Z,80.76
2023-02-03T07:37:19.357Z,80.78
2023-02-03T07:39:48.884Z,80.12
2023-02-03T07:42:18.144Z,80.23
2023-02-03T07:44:49.166Z,79.85
2023-02-03T07:47:18.315Z,80.35
2023-02-03T07:49:47.764Z,79.45
2023-02-03T07:52:18.693Z,79.40
2023-02-03T07:54:48.832Z,79.85
2023-02-03T07:57:17.987Z,79.23
2023-02-03T07:59:47.457Z,78.75
2023-02-03T08:02:16.696Z,79.21
2023-02-03T08:04:46.140Z,78.94
2023-02-03T08:07:15.236Z,79.05
2023-02-03T08:09:46.028Z,79.42
2023-02-03T08:12:15.243Z,78.99
2023-02-03T08:14:44.617Z,78.54
2023-02-03T08:17:13.957Z,78.67
2023-02-03T08:19:43.530Z,78.90
2023-02-03T08:22:16.113Z,78.63
2023-02-03T08:24:47.983Z,78.30
2023-02-03T08:27:29.144Z,77.48
2023-02-03T08:29:58.745Z,78.17
2023-02-03T08:32:28.934Z,78.06
2023-02-03T08:34:58.383Z,77.32
2023-02-03T08:37:28.444Z,77.17
2023-02-03T08:39:57.900Z,77.08
2023-02-03T08:42:28.790Z,77.53
2023-02-03T08:44:58.603Z,77.55
2023-02-03T08:47:28.425Z,76.45
2023-02-03T08:49:58.106Z,76.47
2023-02-03T08:52:27.358Z,76.89
2023-02-03T08:54:56.835Z,77.17
2023-02-03T08:57:26.020Z,77.22
2023-02-03T08:59:57.027Z,77.17
2023-02-03T09:02:26.513Z,77.34
2023-02-03T09:04:56.207Z,78.31
2023-02-03T09:07:25.422Z,78.43
2023-02-03T09:09:55.063Z,78.30
2023-02-03T09:12:24.351Z,78.02
2023-02-03T09:14:55.263Z,78.92
2023-02-03T09:17:24.534Z,79.63
2023-02-03T09:19:54.000Z,79.25
2023-02-03T09:22:23.196Z,79.58
2023-02-03T09:24:52.909Z,79.50
2023-02-03T09:27:22.195Z,79.68
2023-02-03T09:29:51.825Z,79.49
2023-02-03T09:32:22.451Z,78.98
2023-02-03T09:34:51.915Z,78.78
2023-02-03T09:37:21.114Z,78.24
2023-02-03T09:39:50.888Z,79.25
2023-02-03T09:42:35.919Z,80.20
2023-02-03T09:45:17.751Z,78.71
2023-02-03T09:47:54.109Z,78.30
2023-02-03T09:50:26.429Z,79.16
2023-02-03T09:52:57.272Z,79.05
2023-02-03T09:55:31.528Z,78.46
2023-02-03T09:58:06.657Z,79.39
2023-02-03T10:00:42.620Z,79.14
2023-02-03T10:03:21.729Z,78.87
2023-02-03T10:06:09.236Z,79.92
2023-02-03T10:09:06.522Z,80.74
2023-02-03T10:11:57.255Z,80.27
2023-02-03T10:14:41.698Z,80.71
2023-02-03T10:17:26.272Z,81.41
2023-02-03T10:20:01.025Z,81.52
2023-02-03T10:22:33.631Z,82.17
2023-02-03T10:25:08.352Z,82.66
2023-02-03T10:27:39.621Z,82.57
2023-02-03T10:30:20.376Z,82.73
2023-02-03T10:32:53.652Z,82.75
2023-02-03T10:35:31.051Z,82.88
2023-02-03T10:38:00.989Z,83.66
2023-02-03T10:40:30.850Z,84.30
2023-02-03T10:43:18.807Z,86.82
2023-02-03T10:45:48.046Z,84.98
2023-02-03T10:48:19.932Z,87.55
2023-02-03T10:50:51.743Z,87.60
2023-02-03T10:53:24.174Z,86.46
2023-02-03T10:56:02.550Z,86.08
2023-02-03T10:58:34.265Z,85.73
2023-02-03T11:01:12.525Z,86.39
2023-02-03T11:03:45.432Z,85.81
2023-02-03T11:06:18.098Z,86.19
2023-02-03T11:08:49.581Z,89.26
2023-02-03T11:11:25.164Z,88.18
2023-02-03T11:13:56.395Z,87.11
2023-02-03T11:16:26.288Z,85.49
2023-02-03T11:18:59.250Z,85.59
2023-02-03T11:21:34.721Z,84.45
2023-02-03T11:24:06.265Z,85.16
2023-02-03T11:26:41.456Z,85.40
2023-02-03T11:29:19.491Z,85.11
2023-02-03T11:31:52.532Z,84.55
2023-02-03T11:34:26.765Z,83.98
2023-02-03T11:36:57.877Z,85.18
2023-02-03T11:39:35.674Z,84.72
2023-02-03T11:42:22.485Z,85.06
2023-02-03T11:44:52.082Z,85.43
2023-02-03T11:47:23.740Z,84.25
2023-02-03T11:50:18.374Z,86.21
2023-02-03T11:53:01.710Z,86.13
2023-02-03T11:55:47.119Z,85.81
2023-02-03T11:58:55.567Z,85.69
2023-02-03T12:01:46.007Z,85.21
2023-02-03T12:04:33.672Z,85.38
2023-02-03T12:07:32.214Z,85.48
2023-02-03T12:10:09.195Z,84.80
2023-02-03T12:12:52.437Z,85.94
2023-02-03T12:15:50.295Z,85.04
2023-02-03T12:18:34.624Z,85.67
2023-02-03T12:21:19.788Z,86.20
2023-02-03T12:23:57.975Z,86.45
2023-02-03T12:26:35.891Z,85.50
2023-02-03T12:29:10.895Z,85.12
2023-02-03T12:31:45.869Z,85.81
2023-02-03T12:34:22.327Z,85.08
2023-02-03T12:36:58.589Z,85.67
2023-02-03T12:39:32.870Z,84.97
2023-02-03T12:42:07.635Z,85.93
2023-02-03T12:44:47.471Z,85.52
2023-02-03T12:47:22.644Z,86.45
2023-02-03T12:49:56.380Z,87.33
2023-02-03T12:52:31.779Z,86.84
2023-02-03T12:55:15.705Z,85.69
2023-02-03T12:57:54.918Z,85.57
2023-02-03T13:00:36.096Z,84.90
2023-02-03T13:03:18.854Z,85.62
2023-02-03T13:05:55.601Z,85.56
2023-02-03T13:08:28.483Z,71.82
2023-02-03T13:11:05.363Z,65.70
2023-02-03T13:13:41.670Z,63.90
2023-02-03T13:16:14.179Z,64.14
2023-02-03T13:18:47.520Z,64.80
2023-02-03T13:21:17.015Z,65.50
2023-02-03T13:23:48.159Z,64.15
2023-02-03T13:26:48.610Z,64.29
2023-02-03T13:29:42.639Z,64.06
2023-02-03T13:32:23.106Z,65.08
2023-02-03T13:35:08.172Z,66.07
2023-02-03T13:38:04.353Z,65.28
2023-02-03T13:40:45.958Z,65.63
2023-02-03T13:43:36.822Z,67.36
2023-02-03T13:46:20.009Z,66.03
2023-02-03T13:48:50.058Z,66.88
2023-02-03T13:51:25.168Z,66.56
2023-02-03T13:54:03.026Z,65.38
2023-02-03T13:56:33.786Z,66.33
2023-02-03T13:59:06.148Z,66.08
2023-02-03T14:01:38.974Z,63.92
2023-02-03T14:04:09.820Z,65.59
2023-02-03T14:07:01.467Z,65.40
2023-02-03T14:09:41.983Z,63.20
2023-02-03T14:12:42.275Z,65.22
2023-02-03T14:15:36.571Z,65.04
2023-02-03T14:18:35.243Z,63.98
2023-02-03T14:21:25.431Z,65.56
2023-02-03T14:24:06.999Z,63.92
2023-02-03T14:26:44.412Z,63.64
2023-02-03T14:29:27.090Z,64.85
2023-02-03T14:31:59.856Z,63.44
2023-02-03T14:34:36.567Z,64.24
2023-02-03T14:37:19.426Z,65.62
2023-02-03T14:40:26.463Z,64.60
2023-02-03T14:43:25.797Z,66.15
2023-02-03T14:46:36.657Z,65.18
2023-02-03T14:49:30.693Z,62.47
2023-02-03T14:52:17.028Z,64.23
2023-02-03T14:54:59.965Z,61.80
2023-02-03T14:57:41.349Z,64.48
2023-02-03T15:00:28.718Z,65.36
2023-02-03T15:03:20.396Z,62.88
2023-02-03T15:05:51.318Z,63.88
2023-02-03T15:08:37.311Z,64.14
2023-02-03T15:11:28.401Z,62.57
2023-02-03T15:14:15.123Z,64.77
2023-02-03T15:16:47.044Z,62.68
2023-02-03T15:19:19.948Z,60.93
2023-02-03T15:21:50.019Z,59.66
2023-02-03T15:24:24.288Z,60.82
2023-02-03T15:26:56.135Z,60.78
2023-02-03T15:29:30.335Z,62.26
2023-02-03T15:32:05.687Z,61.13
2023-02-03T15:34:39.689Z,61.84
2023-02-03T15:37:14.806Z,65.06
2023-02-03T15:40:01.841Z,62.19
2023-02-03T15:42:37.341Z,63.25
2023-02-03T15:45:16.736Z,63.89
2023-02-03T15:47:53.735Z,62.81
2023-02-03T15:50:31.791Z,63.17
2023-02-03T15:53:06.544Z,64.19
2023-02-03T15:55:42.925Z,63.97
2023-02-03T15:58:20.077Z,63.64
2023-02-03T16:00:54.015Z,64.15
2023-02-03T16:03:31.085Z,63.46
2023-02-03T16:06:10.202Z,61.95
2023-02-03T16:08:46.498Z,61.31
2023-02-03T16:11:29.599Z,62.11
2023-02-03T16:14:00.975Z,62.16
2023-02-03T16:16:35.959Z,62.31
2023-02-03T16:19:08.023Z,63.01
2023-02-03T16:21:44.336Z,62.71
2023-02-03T16:24:34.441Z,62.56
2023-02-03T16:27:23.601Z,63.08
2023-02-03T16:30:10.908Z,60.86
2023-02-03T16:32:58.220Z,61.13
2023-02-03T16:35:45.138Z,62.69
2023-02-03T16:38:35.317Z,61.07
2023-02-03T16:41:34.011Z,60.41
2023-02-03T16:44:22.188Z,61.98
2023-02-03T16:47:09.380Z,62.23
2023-02-03T16:49:56.016Z,60.58
2023-02-03T16:52:25.588Z,60.60
2023-02-03T16:54:54.876Z,60.67
2023-02-03T16:57:24.519Z,60.72
2023-02-03T16:59:55.274Z,59.21
2023-02-03T17:02:24.823Z,61.01
2023-02-03T17:04:54.274Z,61.39
2023-02-03T17:07:23.779Z,60.71
2023-02-03T17:09:53.352Z,61.75
2023-02-03T17:12:23.079Z,61.13
2023-02-03T17:14:52.546Z,62.59
2023-02-03T17:17:23.794Z,62.12
2023-02-03T17:19:53.244Z,61.67
2023-02-03T17:22:23.396Z,60.88
2023-02-03T17:24:52.657Z,61.45
2023-02-03T17:27:22.394Z,60.11
2023-02-03T17:29:51.606Z,61.36
2023-02-03T17:32:22.647Z,60.89
2023-02-03T17:34:52.109Z,60.33
2023-02-03T17:37:21.707Z,60.14
2023-02-03T17:53:57.184Z,58.85
2023-02-03T17:56:28.117Z,59.22
2023-02-03T17:58:59.243Z,58.34
2023-02-03T18:01:29.252Z,57.77
2023-02-03T18:04:02.280Z,61.45
2023-02-03T18:11:34.125Z,60.61
2023-02-03T18:14:05.266Z,59.92
2023-02-03T18:16:36.698Z,60.25
2023-02-03T18:19:09.923Z,62.44
2023-02-03T18:21:40.772Z,61.91
2023-02-03T18:24:13.609Z,62.35
2023-02-03T18:26:50.060Z,60.65
2023-02-03T18:29:20.773Z,60.16
2023-02-03T18:31:50.717Z,61.13
2023-02-03T18:34:21.826Z,60.78
2023-02-03T18:36:51.115Z,61.79
2023-02-03T18:39:20.554Z,63.00
2023-02-03T18:41:49.990Z,61.95
2023-02-03T18:44:19.716Z,61.75
2023-02-03T18:46:49.249Z,63.34
2023-02-03T18:49:20.358Z,61.29
2023-02-03T18:51:49.654Z,62.11
2023-02-03T18:54:19.195Z,61.11
2023-02-03T18:56:48.482Z,60.93
2023-02-03T18:59:18.328Z,61.50
2023-02-03T19:01:48.722Z,61.25
2023-02-03T19:04:18.473Z,61.20
2023-02-03T19:06:49.635Z,62.34
2023-02-03T19:09:20.769Z,62.03
2023-02-03T19:11:50.373Z,59.81
2023-02-03T19:14:20.756Z,59.00
2023-02-03T19:16:51.942Z,59.51
2023-02-03T19:19:22.079Z,58.80
2023-02-03T19:21:53.115Z,59.69
2023-02-03T19:24:24.947Z,60.52
2023-02-03T19:26:54.241Z,61.33
2023-02-03T19:29:24.174Z,60.31
2023-02-03T19:31:54.471Z,60.29
2023-02-03T19:34:24.363Z,60.72
2023-02-03T19:36:55.348Z,61.96
2023-02-03T19:39:25.000Z,61.14
2023-02-03T19:41:54.509Z,61.55
2023-02-03T19:44:24.501Z,63.23
2023-02-03T19:46:54.401Z,61.21
2023-02-03T19:49:25.617Z,61.48
2023-02-03T19:51:56.451Z,60.05
2023-02-03T19:54:26.206Z,60.98
2023-02-03T19:56:55.517Z,63.03
2023-02-03T19:59:25.036Z,61.17
2023-02-03T20:01:55.417Z,60.40
2023-02-03T20:04:27.987Z,60.61
2023-02-03T20:06:59.063Z,62.03
2023-02-03T20:09:28.568Z,61.73
2023-02-03T20:11:57.849Z,61.39
2023-02-03T20:14:27.596Z,61.15
2023-02-03T20:16:59.203Z,63.55
2023-02-03T20:19:28.706Z,63.21
2023-02-03T20:22:00.745Z,63.92
2023-02-03T20:24:30.397Z,62.90
2023-02-03T20:26:59.811Z,63.46
2023-02-03T20:29:30.320Z,64.20
2023-02-03T20:31:59.883Z,63.20
2023-02-03T20:34:29.804Z,62.77
2023-02-03T20:37:01.246Z,65.31
2023-02-03T20:39:33.041Z,63.82
2023-02-03T20:42:02.538Z,65.10
2023-02-03T20:44:32.072Z,64.23
2023-02-03T20:47:02.067Z,64.32
2023-02-03T20:49:31.705Z,64.58
2023-02-03T20:52:02.289Z,64.97
2023-02-03T20:54:32.212Z,66.23
2023-02-03T20:57:01.533Z,64.68
2023-02-03T20:59:32.106Z,64.90
2023-02-03T21:02:08.070Z,62.14
2023-02-03T21:04:57.484Z,62.00
2023-02-03T21:07:31.522Z,63.49
2023-02-03T21:10:01.687Z,62.29
2023-02-03T21:12:30.913Z,64.71
2023-02-03T21:15:01.068Z,65.31
2023-02-03T21:17:30.732Z,64.87
2023-02-03T21:20:01.283Z,65.68
2023-02-03T21:22:35.711Z,65.42
2023-02-03T21:25:08.384Z,65.26
2023-02-03T21:27:37.771Z,66.26
2023-02-03T21:30:28.382Z,65.43
2023-02-03T21:32:59.095Z,65.09
2023-02-03T21:35:37.645Z,63.71
2023-02-03T21:38:31.621Z,64.76
2023-02-03T21:41:01.531Z,64.16
2023-02-03T21:43:31.051Z,64.50
2023-02-03T21:46:01.737Z,63.48
2023-02-03T21:48:33.366Z,64.20
2023-02-03T21:51:05.193Z,63.33
2023-02-03T21:53:36.451Z,60.76
2023-02-03T21:56:20.355Z,60.07
2023-02-03T21:58:51.101Z,61.40
2023-02-03T22:01:23.060Z,61.18
2023-02-03T22:03:53.900Z,60.60
2023-02-03T22:06:27.042Z,59.41
2023-02-03T22:08:59.776Z,59.34
2023-02-03T22:11:30.721Z,58.79
2023-02-03T22:14:00.847Z,58.62
2023-02-03T22:16:30.510Z,58.42
2023-02-03T22:18:59.812Z,59.39
2023-02-03T22:21:29.362Z,60.20
2023-02-03T22:24:00.386Z,58.94
2023-02-03T22:26:30.542Z,58.76
2023-02-03T22:28:59.710Z,56.56
2023-02-03T22:31:29.663Z,56.31
2023-02-03T22:33:58.984Z,55.32
2023-02-03T22:36:28.714Z,56.82
2023-02-03T22:38:59.349Z,58.91
2023-02-03T22:41:28.877Z,57.80
2023-02-03T22:43:58.255Z,55.71
2023-02-03T22:46:27.884Z,55.83
2023-02-03T22:48:57.165Z,55.82
2023-02-03T22:51:26.733Z,55.53
2023-02-03T22:53:55.974Z,54.79
2023-02-03T22:56:26.858Z,55.65
2023-02-03T22:58:56.057Z,56.30
2023-02-03T23:01:25.595Z,56.54
2023-02-03T23:03:54.825Z,55.40
2023-02-03T23:06:24.619Z,55.59
2023-02-03T23:08:55.492Z,56.32
2023-02-03T23:11:26.481Z,55.37
2023-02-03T23:13:55.773Z,54.71
2023-02-03T23:16:25.303Z,54.70
2023-02-03T23:18:54.484Z,55.62
2023-02-03T23:21:24.010Z,54.65
2023-02-03T23:23:53.185Z,55.36
2023-02-03T23:26:22.981Z,55.47
2023-02-03T23:28:53.737Z,55.12
2023-02-03T23:31:23.438Z,54.25
2023-02-03T23:34:06.527Z,54.10
2023-02-03T23:36:36.245Z,53.86
2023-02-03T23:39:06.373Z,54.24
2023-02-03T23:41:35.940Z,52.64
2023-02-03T23:44:06.852Z,52.16
2023-02-03T23:46:36.511Z,53.48
2023-02-03T23:49:05.857Z,52.48
2023-02-03T23:51:35.397Z,53.12
2023-02-03T23:54:04.953Z,53.41
2023-02-03T23:56:34.511Z,52.61
2023-02-03T23:59:05.187Z,50.73
